Time;durP1;ratioP1;P1;durP2;ratioP2;P2;SDS_P1;SDS_P2;PMS_P1;PMS_P2;Temp;Humidity;BMP_temperature;BMP_pressure;BME280_temperature;BME280_humidity;BME280_pressure;Samples;Min_cycle;Max_cycle;Signal;HPM_P1;HPM_P2
2024/01/01 00:00:36;;;;;;;40.42;21.40;;;4.10;99.90;;;;;;5019683;28;20233;-79
2024/01/01 00:03:03;;;;;;;27.65;11.30;;;4.10;99.90;;;;;;5017566;28;20213;-78
2024/01/01 00:05:30;;;;;;;14.85;7.55;;;4.10;99.90;;;;;;5019756;28;20214;-79
2024/01/01 00:07:58;;;;;;;8.52;4.55;;;4.20;99.90;;;;;;5020814;28;20209;-79
2024/01/01 00:10:25;;;;;;;5.68;3.72;;;4.20;99.90;;;;;;5018940;28;20202;-78
2024/01/01 00:12:52;;;;;;;4.25;3.88;;;4.30;99.90;;;;;;5020436;28;20222;-79
2024/01/01 00:15:19;;;;;;;5.13;2.85;;;4.30;99.90;;;;;;5024045;28;20221;-80
2024/01/01 00:17:47;;;;;;;5.88;3.47;;;4.30;99.90;;;;;;5023161;28;20238;-79
2024/01/01 00:20:14;;;;;;;4.25;3.10;;;4.30;99.90;;;;;;5024154;28;20229;-79
2024/01/01 00:22:41;;;;;;;5.95;3.13;;;4.30;99.90;;;;;;5024070;28;20230;-79
2024/01/01 00:25:09;;;;;;;4.05;3.05;;;4.30;99.90;;;;;;5018085;28;20716;-78
2024/01/01 00:27:36;;;;;;;4.78;2.70;;;4.30;99.90;;;;;;5024157;28;20214;-79
2024/01/01 00:30:03;;;;;;;5.93;3.78;;;4.30;99.90;;;;;;5024038;28;20209;-79
2024/01/01 00:32:30;;;;;;;9.73;6.28;;;4.30;99.90;;;;;;5023889;28;20231;-80
2024/01/01 00:34:57;;;;;;;4.82;3.05;;;4.40;99.90;;;;;;5023361;28;20210;-80
2024/01/01 00:37:24;;;;;;;6.30;3.17;;;4.30;99.90;;;;;;5023942;28;20211;-79
2024/01/01 00:39:51;;;;;;;3.50;3.10;;;4.40;99.90;;;;;;5023132;28;20250;-80
2024/01/01 00:42:19;;;;;;;6.63;4.00;;;4.40;99.90;;;;;;5034231;28;20807;-79
2024/01/01 00:44:45;;;;;;;4.38;3.20;;;4.40;99.90;;;;;;5032413;28;20216;-78
2024/01/01 00:47:12;;;;;;;5.18;3.90;;;4.40;99.90;;;;;;5033140;28;20205;-79
2024/01/01 00:49:39;;;;;;;5.30;3.17;;;4.40;99.90;;;;;;5032553;28;20201;-79
2024/01/01 00:52:06;;;;;;;6.35;3.20;;;4.30;99.90;;;;;;5032406;28;20220;-79
2024/01/01 00:54:33;;;;;;;6.60;4.68;;;4.30;99.90;;;;;;5032959;28;20217;-79
2024/01/01 00:57:00;;;;;;;6.53;4.05;;;4.20;99.90;;;;;;5032831;28;20283;-79
2024/01/01 00:59:28;;;;;;;8.23;4.68;;;4.20;99.90;;;;;;5031933;28;20717;-78
2024/01/01 01:01:55;;;;;;;5.35;4.22;;;4.10;99.90;;;;;;5031127;28;20221;-78
2024/01/01 01:04:22;;;;;;;4.10;3.47;;;4.10;99.90;;;;;;5033574;28;20205;-78
2024/01/01 01:06:48;;;;;;;5.13;3.08;;;4.00;99.90;;;;;;5032395;28;20238;-79
2024/01/01 01:09:15;;;;;;;5.78;3.75;;;3.90;99.90;;;;;;5033177;28;20209;-78
2024/01/01 01:11:42;;;;;;;5.55;3.72;;;3.90;99.90;;;;;;5031953;28;20237;-78
2024/01/01 01:14:09;;;;;;;7.47;3.50;;;3.90;99.90;;;;;;5032620;28;20674;-79
2024/01/01 01:16:37;;;;;;;6.30;4.20;;;3.80;99.90;;;;;;5033009;28;20216;-79
2024/01/01 01:19:04;;;;;;;6.38;3.80;;;3.90;99.90;;;;;;5032711;28;20209;-79
2024/01/01 01:21:31;;;;;;;5.43;3.55;;;3.80;99.90;;;;;;5031597;28;20235;-78
2024/01/01 01:23:58;;;;;;;4.47;3.40;;;3.90;99.90;;;;;;5032464;28;20205;-79
2024/01/01 01:26:25;;;;;;;6.90;4.47;;;3.90;99.90;;;;;;5034053;28;20207;-78
2024/01/01 01:28:51;;;;;;;4.88;3.78;;;4.00;99.90;;;;;;5032468;28;20219;-79
2024/01/01 01:31:18;;;;;;;8.25;4.20;;;4.00;99.90;;;;;;5033555;28;20238;-79
2024/01/01 01:33:46;;;;;;;4.65;4.13;;;4.10;99.90;;;;;;5034934;28;20651;-79
2024/01/01 01:36:14;;;;;;;5.97;3.30;;;4.20;99.90;;;;;;5035766;28;20217;-79
2024/01/01 01:38:41;;;;;;;5.10;3.92;;;4.20;99.90;;;;;;5035307;28;20213;-79
2024/01/01 01:41:08;;;;;;;6.13;4.45;;;4.30;99.90;;;;;;5028871;28;20231;-79
2024/01/01 01:43:35;;;;;;;6.00;3.10;;;4.30;99.90;;;;;;5038069;28;20596;-79
2024/01/01 01:46:03;;;;;;;4.70;2.95;;;4.40;99.90;;;;;;5041003;28;20259;-79
2024/01/01 01:48:31;;;;;;;3.92;2.65;;;4.40;99.90;;;;;;5043869;28;20581;-79
2024/01/01 01:50:59;;;;;;;5.13;3.25;;;4.40;99.90;;;;;;5043315;28;20233;-79
2024/01/01 01:53:28;;;;;;;4.00;3.38;;;4.40;99.90;;;;;;5045563;28;20212;-79
2024/01/01 01:55:58;;;;;;;3.47;3.15;;;4.40;99.90;;;;;;5042757;28;20219;-79
2024/01/01 01:58:25;;;;;;;5.13;3.90;;;4.40;99.90;;;;;;5043264;28;20275;-79
2024/01/01 02:00:54;;;;;;;4.72;3.03;;;4.30;99.90;;;;;;5042948;28;20438;-79
2024/01/01 02:03:21;;;;;;;4.32;2.22;;;4.30;99.90;;;;;;5045116;28;20280;-79
2024/01/01 02:05:48;;;;;;;7.90;4.13;;;4.30;99.90;;;;;;5044356;28;20205;-79
2024/01/01 02:08:17;;;;;;;6.45;3.05;;;4.30;99.90;;;;;;5044762;28;20203;-79
2024/01/01 02:10:44;;;;;;;4.60;2.45;;;4.30;99.90;;;;;;5044451;28;20218;-79
2024/01/01 02:13:22;;;;;;;5.32;2.30;;;4.40;99.90;;;;;;5044011;28;20254;-79
2024/01/01 02:15:49;;;;;;;2.85;2.30;;;4.40;99.90;;;;;;5044415;28;20208;-79
2024/01/01 02:18:15;;;;;;;3.50;2.35;;;4.40;99.90;;;;;;5040756;28;20217;-79
2024/01/01 02:20:42;;;;;;;8.05;3.30;;;4.40;99.90;;;;;;5031429;28;20228;-78
2024/01/01 02:23:10;;;;;;;7.78;3.50;;;4.30;99.90;;;;;;5023197;28;20221;-79
2024/01/01 02:25:37;;;;;;;4.18;3.25;;;4.30;99.90;;;;;;5012157;28;20219;-78
2024/01/01 02:28:04;;;;;;;5.82;2.90;;;4.30;99.90;;;;;;5025648;28;20293;-78
2024/01/01 02:30:31;;;;;;;5.85;2.60;;;4.30;99.90;;;;;;5032571;28;20213;-78
2024/01/01 02:32:58;;;;;;;4.85;2.45;;;4.30;99.90;;;;;;5032478;28;20212;-78
2024/01/01 02:35:24;;;;;;;5.20;3.35;;;4.20;99.90;;;;;;5032971;28;20207;-79
2024/01/01 02:37:51;;;;;;;5.63;3.00;;;4.30;99.90;;;;;;5032250;28;20227;-78
2024/01/01 02:40:19;;;;;;;3.05;2.28;;;4.30;99.90;;;;;;5033701;28;20228;-78
2024/01/01 02:42:46;;;;;;;3.10;2.70;;;4.30;99.90;;;;;;5036490;28;20216;-78
2024/01/01 02:45:13;;;;;;;3.72;2.15;;;4.30;99.90;;;;;;5038439;28;20590;-78
2024/01/01 02:47:40;;;;;;;8.80;3.28;;;4.30;99.90;;;;;;5037589;28;20712;-78
2024/01/01 02:50:07;;;;;;;5.25;2.55;;;4.30;99.90;;;;;;5037578;28;20196;-78
2024/01/01 02:52:34;;;;;;;8.45;3.75;;;4.30;99.90;;;;;;5039447;28;20230;-79
2024/01/01 02:55:01;;;;;;;6.03;2.75;;;4.30;99.90;;;;;;5043447;28;20743;-79
2024/01/01 02:57:29;;;;;;;5.32;3.20;;;4.30;99.90;;;;;;5044759;28;20215;-78
2024/01/01 02:59:56;;;;;;;4.35;3.03;;;4.30;99.90;;;;;;5045602;28;20239;-79
2024/01/01 03:02:22;;;;;;;4.60;2.65;;;4.30;99.90;;;;;;5047927;28;20229;-79
2024/01/01 03:04:49;;;;;;;5.13;2.85;;;4.30;99.90;;;;;;5046985;28;20273;-78
2024/01/01 03:07:16;;;;;;;2.97;2.78;;;4.20;99.90;;;;;;5048534;28;20573;-79
2024/01/01 03:09:43;;;;;;;5.75;3.85;;;4.20;99.90;;;;;;5046303;28;20205;-79
2024/01/01 03:12:10;;;;;;;9.88;2.90;;;4.20;99.90;;;;;;5039842;28;20232;-79
2024/01/01 03:14:38;;;;;;;4.78;3.20;;;4.10;99.90;;;;;;5048768;28;20204;-79
2024/01/01 03:17:05;;;;;;;2.88;2.40;;;4.10;99.90;;;;;;5048525;28;20209;-78
2024/01/01 03:19:32;;;;;;;5.72;3.10;;;4.10;99.90;;;;;;5048711;28;20211;-79
2024/01/01 03:21:59;;;;;;;4.03;3.20;;;4.10;99.90;;;;;;5048053;28;20228;-79
2024/01/01 03:24:25;;;;;;;4.55;2.83;;;4.10;99.90;;;;;;5047929;28;20214;-79
2024/01/01 03:26:52;;;;;;;4.70;3.00;;;4.20;99.90;;;;;;5045407;28;20205;-79
2024/01/01 03:29:19;;;;;;;3.45;2.60;;;4.20;99.90;;;;;;5045565;28;20202;-79
2024/01/01 03:31:47;;;;;;;4.35;2.85;;;4.30;99.90;;;;;;5044874;28;20235;-78
2024/01/01 03:34:14;;;;;;;4.95;2.78;;;4.30;99.90;;;;;;5041226;28;20213;-79
2024/01/01 03:36:41;;;;;;;3.70;3.03;;;4.40;99.90;;;;;;5048360;28;20233;-78
2024/01/01 03:39:08;;;;;;;2.70;2.50;;;4.40;99.90;;;;;;5041896;28;20212;-78
2024/01/01 03:41:35;;;;;;;4.18;2.22;;;4.50;99.90;;;;;;5042728;28;20241;-79
2024/01/01 03:44:02;;;;;;;5.05;2.20;;;4.50;99.90;;;;;;5045930;28;20204;-79
2024/01/01 03:46:28;;;;;;;5.10;2.83;;;4.50;99.90;;;;;;5045585;28;20215;-79
2024/01/01 03:48:56;;;;;;;2.90;1.70;;;4.50;99.90;;;;;;5043212;28;20204;-78
2024/01/01 03:51:23;;;;;;;3.00;2.20;;;4.50;99.90;;;;;;5044602;28;20213;-79
2024/01/01 03:53:50;;;;;;;4.90;2.65;;;4.50;99.90;;;;;;5041309;28;20206;-78
2024/01/01 03:56:17;;;;;;;4.03;3.67;;;4.50;99.90;;;;;;5025659;28;20205;-78
2024/01/01 03:58:43;;;;;;;5.03;2.25;;;4.50;99.90;;;;;;5032287;28;20217;-78
2024/01/01 04:01:13;;;;;;;1.67;1.55;;;4.50;99.90;;;;;;5032790;28;20227;-78
2024/01/01 04:03:40;;;;;;;2.30;2.10;;;4.50;99.90;;;;;;5042005;28;20207;-78
2024/01/01 04:06:09;;;;;;;3.28;1.90;;;4.50;99.90;;;;;;5044730;28;20224;-78
2024/01/01 04:08:35;;;;;;;1.75;1.35;;;4.50;99.90;;;;;;5044482;28;20214;-79
2024/01/01 04:11:02;;;;;;;1.95;1.73;;;4.50;99.90;;;;;;5044112;28;20234;-78
2024/01/01 04:13:29;;;;;;;3.95;1.67;;;4.40;99.90;;;;;;5043567;28;20255;-78
2024/01/01 04:15:56;;;;;;;2.08;1.38;;;4.40;99.90;;;;;;5042483;28;20205;-79
2024/01/01 04:18:23;;;;;;;1.88;1.70;;;4.40;99.90;;;;;;5044308;28;20232;-79
2024/01/01 04:20:50;;;;;;;2.72;1.70;;;4.40;99.90;;;;;;5039947;28;20228;-79
2024/01/01 04:23:18;;;;;;;2.60;1.52;;;4.30;99.90;;;;;;5043234;28;20216;-79
2024/01/01 04:25:45;;;;;;;1.38;1.25;;;4.30;99.90;;;;;;5043528;28;20239;-79
2024/01/01 04:28:11;;;;;;;1.30;1.20;;;4.40;99.90;;;;;;5041481;28;20537;-78
2024/01/01 04:30:38;;;;;;;2.25;1.60;;;4.40;99.90;;;;;;5041148;28;20228;-79
2024/01/01 04:33:05;;;;;;;2.40;1.17;;;4.40;99.90;;;;;;5040038;28;20216;-78
2024/01/01 04:35:32;;;;;;;1.90;1.10;;;4.40;99.90;;;;;;5043262;28;20202;-78
2024/01/01 04:37:59;;;;;;;3.05;1.38;;;4.40;99.90;;;;;;5045308;28;20696;-78
2024/01/01 04:40:27;;;;;;;2.53;1.60;;;4.30;99.90;;;;;;5046129;28;20220;-79
2024/01/01 04:42:55;;;;;;;1.27;0.90;;;4.30;99.90;;;;;;5045646;28;20201;-78
2024/01/01 04:45:22;;;;;;;2.00;1.20;;;4.30;99.90;;;;;;5040154;28;20300;-78
2024/01/01 04:47:49;;;;;;;1.42;1.10;;;4.30;99.90;;;;;;5044343;28;20217;-78
2024/01/01 04:50:16;;;;;;;2.30;2.03;;;4.30;99.90;;;;;;5039956;28;20206;-79
2024/01/01 04:52:43;;;;;;;2.65;1.15;;;4.20;99.90;;;;;;5043311;28;20209;-78
2024/01/01 04:55:10;;;;;;;1.33;1.23;;;4.20;99.90;;;;;;5041034;28;20208;-79
2024/01/01 04:57:38;;;;;;;1.75;1.55;;;4.20;99.90;;;;;;5040980;28;20202;-78
2024/01/01 05:00:06;;;;;;;2.90;1.40;;;4.20;99.90;;;;;;5039112;28;20212;-78
2024/01/01 05:02:32;;;;;;;1.40;1.30;;;4.10;99.90;;;;;;5043965;28;20723;-78
2024/01/01 05:04:59;;;;;;;3.45;1.60;;;4.10;99.90;;;;;;5045037;28;20209;-79
2024/01/01 05:07:27;;;;;;;1.35;1.25;;;4.10;99.90;;;;;;5045517;28;20276;-79
2024/01/01 05:09:53;;;;;;;1.35;1.23;;;4.00;99.90;;;;;;5045802;28;20202;-78
2024/01/01 05:12:20;;;;;;;0.95;0.85;;;4.00;99.90;;;;;;5039658;28;20240;-78
2024/01/01 05:14:48;;;;;;;1.90;1.40;;;4.00;99.90;;;;;;5037258;28;20201;-78
2024/01/01 05:17:17;;;;;;;1.40;1.10;;;4.10;99.90;;;;;;5037683;28;20214;-78
2024/01/01 05:19:43;;;;;;;1.48;1.08;;;4.10;99.90;;;;;;5040588;28;20200;-77
2024/01/01 05:22:10;;;;;;;1.73;0.95;;;4.10;99.90;;;;;;5038972;28;20232;-77
2024/01/01 05:24:37;;;;;;;2.67;0.80;;;4.10;99.90;;;;;;5039224;28;20209;-78
2024/01/01 05:27:07;;;;;;;0.82;0.82;;;4.10;99.90;;;;;;5040011;28;20203;-77
2024/01/01 05:29:34;;;;;;;1.00;0.80;;;4.10;99.90;;;;;;5040486;28;20235;-78
2024/01/01 05:32:02;;;;;;;1.60;0.82;;;4.00;99.90;;;;;;5033832;28;20235;-78
2024/01/01 05:34:29;;;;;;;0.70;0.70;;;3.90;99.90;;;;;;5032264;28;20674;-77
2024/01/01 05:36:56;;;;;;;1.92;1.00;;;3.80;99.90;;;;;;5032133;28;20200;-78
2024/01/01 05:39:23;;;;;;;1.05;0.90;;;3.80;99.90;;;;;;5031493;28;20202;-78
2024/01/01 05:41:49;;;;;;;0.95;0.80;;;3.80;99.90;;;;;;5031646;28;20225;-78
2024/01/01 05:44:16;;;;;;;5.38;1.35;;;3.70;99.90;;;;;;5031594;28;20208;-78
2024/01/01 05:46:43;;;;;;;3.08;1.20;;;3.60;99.90;;;;;;5032123;28;20232;-77
2024/01/01 05:49:11;;;;;;;1.73;1.45;;;3.60;99.90;;;;;;5032212;28;20215;-78
2024/01/01 05:51:37;;;;;;;5.18;1.00;;;3.60;99.90;;;;;;5031707;28;20732;-78
2024/01/01 05:54:04;;;;;;;1.60;1.42;;;3.50;99.90;;;;;;5032465;28;20209;-77
2024/01/01 05:56:31;;;;;;;1.60;1.00;;;3.50;99.90;;;;;;5031764;28;20204;-78
2024/01/01 05:58:58;;;;;;;1.20;1.10;;;3.50;99.90;;;;;;5032297;28;20269;-77
2024/01/01 06:01:24;;;;;;;1.25;1.08;;;3.60;99.90;;;;;;5032205;28;20596;-77
2024/01/01 06:03:51;;;;;;;1.85;1.20;;;3.60;99.90;;;;;;5033008;28;20211;-77
2024/01/01 06:06:19;;;;;;;1.55;0.90;;;3.60;99.90;;;;;;5032521;28;20210;-78
2024/01/01 06:08:46;;;;;;;1.40;1.30;;;3.60;99.90;;;;;;5032780;28;20216;-78
2024/01/01 06:11:13;;;;;;;1.10;0.90;;;3.60;99.90;;;;;;5033525;28;20710;-78
2024/01/01 06:13:40;;;;;;;2.45;1.35;;;3.60;99.90;;;;;;5033396;28;20212;-77
2024/01/01 06:16:07;;;;;;;1.25;1.15;;;3.70;99.90;;;;;;5035100;28;20585;-78
2024/01/01 06:18:34;;;;;;;2.08;1.10;;;3.70;99.90;;;;;;5037544;28;20208;-78
2024/01/01 06:21:00;;;;;;;1.33;1.05;;;3.70;99.90;;;;;;5036618;28;20237;-78
2024/01/01 06:23:28;;;;;;;1.52;1.15;;;3.80;99.90;;;;;;5037147;28;20213;-77
2024/01/01 06:25:55;;;;;;;2.17;1.05;;;3.90;99.90;;;;;;5037677;28;20215;-78
2024/01/01 06:28:22;;;;;;;2.28;1.60;;;3.90;99.90;;;;;;5037480;28;20247;-78
2024/01/01 06:30:49;;;;;;;1.30;1.20;;;3.90;99.90;;;;;;5037566;28;20739;-78
2024/01/01 06:33:16;;;;;;;6.38;1.90;;;3.90;99.90;;;;;;5037473;28;20663;-78
2024/01/01 06:35:42;;;;;;;1.17;1.08;;;3.90;99.90;;;;;;5038278;28;20201;-78
2024/01/01 06:38:09;;;;;;;2.00;1.60;;;3.90;99.90;;;;;;5037729;28;20216;-78
2024/01/01 06:40:37;;;;;;;1.88;1.30;;;4.00;99.90;;;;;;5037607;28;20205;-78
2024/01/01 06:43:04;;;;;;;2.55;0.80;;;3.90;99.90;;;;;;5038592;28;20209;-78
2024/01/01 06:45:31;;;;;;;1.63;1.05;;;4.00;99.90;;;;;;5037509;28;20218;-78
2024/01/01 06:47:58;;;;;;;1.10;0.80;;;4.00;99.90;;;;;;5037175;28;20205;-78
2024/01/01 06:50:24;;;;;;;1.30;1.17;;;4.10;99.90;;;;;;5037786;28;20216;-78
2024/01/01 06:52:51;;;;;;;1.13;0.85;;;4.10;99.90;;;;;;5037530;28;20202;-77
2024/01/01 06:55:19;;;;;;;1.17;1.02;;;4.10;99.90;;;;;;5037500;28;20212;-78
2024/01/01 06:57:47;;;;;;;1.20;0.75;;;4.10;99.90;;;;;;5036988;28;20202;-78
2024/01/01 07:00:15;;;;;;;0.80;0.77;;;4.10;99.90;;;;;;5037968;28;20206;-78
2024/01/01 07:02:42;;;;;;;1.40;0.90;;;4.10;99.90;;;;;;5037415;28;20222;-78
2024/01/01 07:05:09;;;;;;;1.90;1.05;;;4.00;99.90;;;;;;5033980;28;20577;-78
2024/01/01 07:07:36;;;;;;;1.17;1.00;;;4.00;99.90;;;;;;5035954;28;20251;-78
2024/01/01 07:10:03;;;;;;;1.02;0.93;;;3.90;99.90;;;;;;5033800;28;20213;-78
2024/01/01 07:12:30;;;;;;;3.30;1.05;;;3.90;99.90;;;;;;5033216;28;20901;-78
2024/01/01 07:14:58;;;;;;;1.00;0.90;;;3.90;99.90;;;;;;5034299;28;20207;-78
2024/01/01 07:17:25;;;;;;;1.27;1.17;;;3.90;99.90;;;;;;5034072;28;20211;-78
2024/01/01 07:19:52;;;;;;;2.90;0.82;;;3.90;99.90;;;;;;5034168;28;20697;-78
2024/01/01 07:22:19;;;;;;;3.70;0.98;;;3.90;99.90;;;;;;5033124;28;20281;-77
2024/01/01 07:24:46;;;;;;;1.23;1.13;;;3.90;99.90;;;;;;5034093;28;20217;-78
2024/01/01 07:27:13;;;;;;;1.08;0.98;;;3.90;99.90;;;;;;5032834;28;20207;-78
2024/01/01 07:29:40;;;;;;;1.05;0.95;;;3.90;99.90;;;;;;5034044;28;20204;-78
2024/01/01 07:32:09;;;;;;;0.85;0.82;;;3.90;99.90;;;;;;5033850;28;20225;-78
2024/01/01 07:34:36;;;;;;;1.45;1.20;;;3.90;99.90;;;;;;5034535;28;20207;-78
2024/01/01 07:37:04;;;;;;;1.00;0.90;;;3.90;99.90;;;;;;5035021;28;20219;-78
2024/01/01 07:39:31;;;;;;;2.05;1.27;;;3.90;99.90;;;;;;5034794;28;20242;-78
2024/01/01 07:41:58;;;;;;;1.20;0.90;;;3.90;99.90;;;;;;5034548;28;20228;-78
2024/01/01 07:44:25;;;;;;;2.95;1.92;;;4.00;99.90;;;;;;5034825;28;20682;-78
2024/01/01 07:46:52;;;;;;;1.10;0.93;;;3.90;99.90;;;;;;5035076;28;20207;-78
2024/01/01 07:49:20;;;;;;;0.82;0.82;;;4.00;99.90;;;;;;5034830;28;20211;-78
2024/01/01 07:51:47;;;;;;;2.88;1.40;;;4.10;99.90;;;;;;5035344;28;20248;-78
2024/01/01 07:54:13;;;;;;;1.45;0.70;;;4.00;99.90;;;;;;5035679;28;20215;-78
2024/01/01 07:56:43;;;;;;;2.08;0.98;;;4.10;99.90;;;;;;5035389;28;20589;-78
2024/01/01 07:59:11;;;;;;;1.10;1.00;;;4.10;99.90;;;;;;5031472;28;20206;-78
2024/01/01 08:01:39;;;;;;;1.40;1.25;;;4.10;99.90;;;;;;5035283;28;20236;-77
2024/01/01 08:04:06;;;;;;;3.28;1.10;;;4.20;99.90;;;;;;5023756;28;20204;-78
2024/01/01 08:06:34;;;;;;;1.00;0.90;;;4.30;99.90;;;;;;5024865;28;20677;-78
2024/01/01 08:09:01;;;;;;;1.58;1.10;;;4.50;99.90;;;;;;5025111;28;20253;-78
2024/01/01 08:11:28;;;;;;;4.10;1.27;;;4.70;99.90;;;;;;5024966;28;20233;-78
2024/01/01 08:13:55;;;;;;;1.92;1.83;;;4.70;99.90;;;;;;5026120;28;20663;-78
2024/01/01 08:16:21;;;;;;;1.67;1.10;;;4.70;99.90;;;;;;5024425;28;20210;-78
2024/01/01 08:18:48;;;;;;;1.38;0.70;;;4.70;99.90;;;;;;5026483;28;20211;-77
2024/01/01 08:21:15;;;;;;;3.30;1.25;;;4.70;99.90;;;;;;5020719;28;20230;-78
2024/01/01 08:23:44;;;;;;;4.63;1.00;;;5.20;99.90;;;;;;5020028;28;20696;-78
2024/01/01 08:26:11;;;;;;;0.77;0.70;;;5.70;99.90;;;;;;5030318;28;20217;-78
2024/01/01 08:28:38;;;;;;;2.22;1.00;;;6.00;99.90;;;;;;5033722;28;20209;-78
2024/01/01 08:31:05;;;;;;;4.78;1.10;;;6.40;99.90;;;;;;5034404;28;20229;-78
2024/01/01 08:33:31;;;;;;;1.55;1.10;;;6.60;99.90;;;;;;5032211;28;20210;-78
2024/01/01 08:35:58;;;;;;;0.70;0.60;;;6.60;99.90;;;;;;5031445;28;20208;-78
2024/01/01 08:38:25;;;;;;;3.13;1.08;;;6.60;99.90;;;;;;5034298;28;20659;-78
2024/01/01 08:40:54;;;;;;;1.50;1.15;;;6.60;99.90;;;;;;5033091;28;20230;-78
2024/01/01 08:43:21;;;;;;;1.95;1.00;;;6.50;99.90;;;;;;5018313;28;20276;-78
2024/01/01 08:45:48;;;;;;;0.95;0.90;;;6.50;99.90;;;;;;5014282;28;20203;-81
2024/01/01 08:48:14;;;;;;;1.10;1.00;;;6.60;99.90;;;;;;5017377;28;20221;-80
2024/01/01 08:50:41;;;;;;;1.55;0.90;;;6.60;99.90;;;;;;5015448;28;20234;-79
2024/01/01 08:53:08;;;;;;;0.85;0.75;;;6.60;99.90;;;;;;5011108;28;20209;-78
2024/01/01 08:55:36;;;;;;;1.45;1.08;;;6.50;99.90;;;;;;5015914;28;20214;-79
2024/01/01 08:58:05;;;;;;;1.17;1.05;;;6.50;99.90;;;;;;5014554;28;20234;-79
2024/01/01 09:00:33;;;;;;;1.48;1.20;;;6.40;99.90;;;;;;5013876;28;20707;-78
2024/01/01 09:02:59;;;;;;;1.38;0.85;;;6.30;99.90;;;;;;5013916;28;20371;-78
2024/01/01 09:05:26;;;;;;;3.90;2.50;;;6.30;99.90;;;;;;5013071;28;20206;-78
2024/01/01 09:07:53;;;;;;;1.15;1.05;;;6.40;99.90;;;;;;5013577;28;20222;-78
2024/01/01 09:10:20;;;;;;;1.02;0.93;;;6.40;99.90;;;;;;5014639;28;20218;-78
2024/01/01 09:12:47;;;;;;;2.20;1.08;;;6.30;99.90;;;;;;5011551;28;20277;-78
2024/01/01 09:15:16;;;;;;;1.50;1.00;;;6.40;99.90;;;;;;5012374;28;20210;-81
2024/01/01 09:17:43;;;;;;;1.70;0.70;;;6.40;99.90;;;;;;5014887;28;20203;-78
2024/01/01 09:20:10;;;;;;;1.35;1.00;;;6.40;99.90;;;;;;5009782;28;20754;-79
2024/01/01 09:22:38;;;;;;;1.65;1.00;;;6.60;99.90;;;;;;5012338;28;20235;-80
2024/01/01 09:25:05;;;;;;;2.15;0.80;;;6.90;99.90;;;;;;5007137;28;20237;-79
2024/01/01 09:27:32;;;;;;;1.92;1.50;;;7.30;99.90;;;;;;5008230;28;20668;-79
2024/01/01 09:29:59;;;;;;;1.13;1.02;;;7.60;99.90;;;;;;5007704;28;20206;-79
2024/01/01 09:32:27;;;;;;;1.30;1.00;;;8.10;99.90;;;;;;5010760;28;20275;-80
2024/01/01 09:34:54;;;;;;;2.30;0.95;;;8.80;99.90;;;;;;5014080;28;20287;-80
2024/01/01 09:37:20;;;;;;;4.82;1.65;;;9.70;99.90;;;;;;5013825;28;20215;-82
2024/01/01 09:39:47;;;;;;;2.25;0.90;;;10.70;99.90;;;;;;5012531;28;20205;-81
2024/01/01 09:42:14;;;;;;;1.90;1.25;;;11.70;99.90;;;;;;5027535;28;20229;-81
2024/01/01 09:44:40;;;;;;;2.25;1.00;;;11.70;99.90;;;;;;5032498;28;20205;-80
2024/01/01 09:47:07;;;;;;;1.90;1.20;;;11.30;99.90;;;;;;5032718;28;20582;-80
2024/01/01 09:49:36;;;;;;;0.90;0.80;;;11.00;99.90;;;;;;5031409;28;20299;-80
2024/01/01 09:52:04;;;;;;;0.80;0.80;;;11.10;99.90;;;;;;5031952;28;20214;-80
2024/01/01 09:54:31;;;;;;;1.30;1.13;;;11.80;99.90;;;;;;5032227;28;20209;-80
2024/01/01 09:56:58;;;;;;;1.05;0.80;;;12.50;99.90;;;;;;5031156;28;20667;-80
2024/01/01 09:59:36;;;;;;;0.90;0.80;;;12.60;99.90;;;;;;5028705;28;20210;-80
2024/01/01 10:02:04;;;;;;;2.50;0.88;;;12.90;99.90;;;;;;5033565;28;20240;-80
2024/01/01 10:04:31;;;;;;;1.02;0.82;;;13.40;99.90;;;;;;5032647;28;20212;-80
2024/01/01 10:06:59;;;;;;;1.10;0.80;;;13.90;99.90;;;;;;5033085;28;20590;-80
2024/01/01 10:09:27;;;;;;;2.08;1.40;;;14.70;99.90;;;;;;5032939;28;20207;-79
2024/01/01 10:12:05;;;;;;;1.00;0.80;;;14.90;99.90;;;;;;5025789;28;20307;-80
2024/01/01 10:14:32;;;;;;;1.60;0.80;;;14.80;99.90;;;;;;5017537;28;20471;-80
2024/01/01 10:17:11;;;;;;;1.87;0.90;;;14.70;99.90;;;;;;5019659;28;20968;-80
2024/01/01 10:19:47;;;;;;;3.47;1.20;;;14.70;99.90;;;;;;5021465;28;20998;-81
2024/01/01 10:22:15;;;;;;;2.00;1.23;;;14.00;99.90;;;;;;5031884;28;20490;-80
2024/01/01 10:24:42;;;;;;;1.45;1.00;;;13.20;99.90;;;;;;5031984;28;20471;-79
2024/01/01 10:27:10;;;;;;;2.55;1.60;;;12.50;99.90;;;;;;5030622;28;20235;-80
2024/01/01 10:29:37;;;;;;;2.17;1.10;;;12.70;99.90;;;;;;5025561;28;20667;-80
2024/01/01 10:32:05;;;;;;;1.90;0.95;;;13.00;99.90;;;;;;5031583;28;20253;-80
2024/01/01 10:34:32;;;;;;;1.35;1.13;;;13.20;99.90;;;;;;5026205;28;20609;-80
2024/01/01 10:37:00;;;;;;;2.15;1.55;;;13.40;99.90;;;;;;5028668;28;20688;-80
2024/01/01 10:39:30;;;;;;;1.00;0.85;;;13.30;99.90;;;;;;5033326;28;20222;-80
2024/01/01 10:41:57;;;;;;;1.20;1.00;;;13.60;99.90;;;;;;5029599;28;20237;-80
2024/01/01 10:44:24;;;;;;;2.08;0.85;;;13.60;99.90;;;;;;5031115;28;20203;-81
2024/01/01 10:46:56;;;;;;;1.98;1.00;;;13.80;99.90;;;;;;5034641;28;20302;-80
2024/01/01 10:49:29;;;;;;;1.30;0.98;;;13.80;99.90;;;;;;5029439;28;20594;-82
2024/01/01 10:52:11;;;;;;;2.95;1.35;;;14.20;99.90;;;;;;5027644;28;20218;-80
2024/01/01 10:55:11;;;;;;;2.58;1.25;;;14.00;99.90;;;;;;5016854;28;20215;-80
2024/01/01 10:58:01;;;;;;;3.78;1.08;;;13.50;99.90;;;;;;5029591;28;20742;-79
2024/01/01 11:00:37;;;;;;;2.30;1.10;;;12.60;99.90;;;;;;5030253;28;20682;-79
2024/01/01 11:03:06;;;;;;;4.20;1.25;;;12.20;99.90;;;;;;5036687;28;20308;-79
2024/01/01 11:05:34;;;;;;;1.33;1.20;;;11.70;99.90;;;;;;5038602;28;20213;-79
2024/01/01 11:08:02;;;;;;;1.35;1.17;;;11.00;99.90;;;;;;5034939;28;20205;-79
2024/01/01 11:10:37;;;;;;;1.90;1.30;;;10.50;99.90;;;;;;5021235;28;20220;-79
2024/01/01 11:13:05;;;;;;;2.72;1.15;;;9.70;99.90;;;;;;5037214;28;20481;-79
2024/01/01 11:15:39;;;;;;;2.25;1.05;;;9.20;99.90;;;;;;5037635;28;20205;-79
2024/01/01 11:18:16;;;;;;;8.75;1.45;;;8.90;99.90;;;;;;5037800;28;20236;-78
2024/01/01 11:20:53;;;;;;;1.90;1.15;;;8.50;99.90;;;;;;5037563;28;20226;-78
2024/01/01 11:23:40;;;;;;;4.72;1.52;;;8.40;99.90;;;;;;5026943;28;20228;-78
2024/01/01 11:26:32;;;;;;;1.95;1.20;;;8.30;99.90;;;;;;5035866;28;20212;-78
2024/01/01 11:29:02;;;;;;;2.47;1.27;;;8.40;99.90;;;;;;5026919;28;20216;-78
2024/01/01 11:31:30;;;;;;;3.00;1.15;;;8.80;99.90;;;;;;5022395;28;20227;-78
2024/01/01 11:34:05;;;;;;;1.80;0.90;;;8.60;99.90;;;;;;5033599;28;20594;-77
2024/01/01 11:36:33;;;;;;;3.38;1.42;;;8.40;99.90;;;;;;5017651;28;20220;-77
2024/01/01 11:38:59;;;;;;;3.63;1.02;;;8.30;99.90;;;;;;5030104;28;20210;-77
2024/01/01 11:41:29;;;;;;;2.75;1.23;;;8.30;99.90;;;;;;5016864;28;20744;-77
2024/01/01 11:44:08;;;;;;;2.45;1.10;;;8.30;99.90;;;;;;5032838;28;20580;-77
2024/01/01 11:46:35;;;;;;;1.55;0.90;;;8.30;99.90;;;;;;5033523;28;20210;-77
2024/01/01 11:49:02;;;;;;;1.25;0.85;;;8.70;99.90;;;;;;5031861;28;20212;-78
2024/01/01 11:51:31;;;;;;;1.48;1.35;;;9.00;99.90;;;;;;5032188;28;20225;-78
2024/01/01 11:54:05;;;;;;;1.90;1.00;;;9.30;99.90;;;;;;5031702;28;20214;-77
2024/01/01 11:56:33;;;;;;;3.80;1.35;;;9.60;99.90;;;;;;5032342;28;20206;-77
2024/01/01 11:59:02;;;;;;;2.75;1.08;;;10.10;99.90;;;;;;5032015;28;20691;-77
2024/01/01 12:01:29;;;;;;;1.88;1.08;;;10.50;99.90;;;;;;5031944;28;20235;-77
2024/01/01 12:03:57;;;;;;;1.73;1.48;;;10.60;99.90;;;;;;5030483;28;20601;-77
2024/01/01 12:06:24;;;;;;;3.00;1.23;;;11.10;99.90;;;;;;5031970;28;20289;-77
2024/01/01 12:09:01;;;;;;;2.88;1.45;;;11.40;99.90;;;;;;5031200;28;20213;-77
2024/01/01 12:11:28;;;;;;;1.33;1.20;;;11.10;99.90;;;;;;5026036;28;20233;-77
2024/01/01 12:13:57;;;;;;;1.95;1.00;;;11.00;99.90;;;;;;5015127;28;20681;-77
2024/01/01 12:16:24;;;;;;;1.15;0.80;;;10.80;99.90;;;;;;5016877;28;20214;-77
2024/01/01 12:18:56;;;;;;;1.20;1.00;;;10.30;99.90;;;;;;5013912;28;20221;-77
2024/01/01 12:21:23;;;;;;;2.83;1.15;;;9.90;99.90;;;;;;5016022;28;20237;-77
2024/01/01 12:23:50;;;;;;;1.65;1.10;;;9.60;99.90;;;;;;5013902;28;20235;-77
2024/01/01 12:26:23;;;;;;;2.10;1.40;;;9.50;99.90;;;;;;5016515;28;20690;-77
2024/01/01 12:29:10;;;;;;;2.88;1.20;;;9.20;99.90;;;;;;5013059;28;20217;-77
2024/01/01 12:31:37;;;;;;;5.28;1.10;;;9.20;99.90;;;;;;5021382;28;20227;-77
2024/01/01 12:34:05;;;;;;;4.80;1.40;;;9.10;99.90;;;;;;5013119;28;20594;-77
2024/01/01 12:36:31;;;;;;;2.97;1.17;;;9.00;99.90;;;;;;5012554;28;20220;-77
2024/01/01 12:38:58;;;;;;;2.55;1.30;;;9.00;99.90;;;;;;5020113;28;20224;-77
2024/01/01 12:41:25;;;;;;;2.88;1.17;;;8.90;99.90;;;;;;5015258;28;20262;-77
2024/01/01 12:43:51;;;;;;;3.00;1.70;;;8.80;99.90;;;;;;5014128;28;20230;-77
2024/01/01 12:46:19;;;;;;;3.25;1.30;;;8.90;99.90;;;;;;5014843;28;20296;-77
2024/01/01 12:48:46;;;;;;;2.78;1.20;;;9.00;99.90;;;;;;5023040;28;20217;-77
2024/01/01 12:51:16;;;;;;;2.58;1.05;;;8.90;99.90;;;;;;5031145;28;20234;-78
2024/01/01 12:53:42;;;;;;;1.55;1.20;;;8.80;99.90;;;;;;5022945;28;20206;-78
2024/01/01 12:56:10;;;;;;;5.68;1.45;;;8.70;99.90;;;;;;5024279;28;20216;-77
2024/01/01 12:58:40;;;;;;;1.55;1.20;;;8.60;99.90;;;;;;5030962;28;20216;-79